Weather at Sant Martí De Sescorts Heliport

Public forecast

Using degrees Celsius for public forecast. Weather courtesy of forecast.io.

Closest aviation weather report (METAR) to Sant Martí De Sescorts Heliport

Closest report is Girona Airport, 20.9 nm (38.6 km) ESE. Retrieved 2020/09/26 08:00 UTC (2 minutes ago):

LEGE 260800Z 01003KT 290V070 9999 SCT050 14/05 Q1014

Closest aviation forecast (TAF) to Sant Martí De Sescorts Heliport

Closest forecast is Girona Airport, 20.9 nm (38.6 km) ESE. Retrieved 2020/09/26 06:27 UTC (2 hours ago):

TAF LEGE 260500Z 2606/2706 VRB03KT 9999 FEW020 TX21/2613Z TN10/2606Z BECMG 2612/2614 18010KT BECMG 2618/2620 VRB03KT TEMPO 2618/2624 04010KT 4000 RA BKN010